createdAt,value
2017-12-13T00:01:10.944Z,100605.12
2017-12-13T00:03:39.272Z,100606.68
2017-12-13T00:06:07.593Z,100600.84
2017-12-13T00:08:35.947Z,100598.58
2017-12-13T00:11:04.302Z,100602.64
2017-12-13T00:13:32.649Z,100597.97
2017-12-13T00:16:01.008Z,100608.20
2017-12-13T00:18:29.338Z,100598.94
2017-12-13T00:20:58.451Z,100594.02
2017-12-13T00:23:27.602Z,100596.39
2017-12-13T00:25:55.920Z,100604.97
2017-12-13T00:28:24.244Z,100603.98
2017-12-13T00:30:52.619Z,100602.48
2017-12-13T00:33:20.952Z,100599.47
2017-12-13T00:35:49.271Z,100601.58
2017-12-13T00:38:17.636Z,100607.98
2017-12-13T00:40:45.959Z,100608.73
2017-12-13T00:43:14.290Z,100609.50
2017-12-13T00:45:42.635Z,100606.05
2017-12-13T00:48:11.002Z,100604.00
2017-12-13T00:50:39.361Z,100606.25
2017-12-13T00:53:07.697Z,100610.91
2017-12-13T00:55:36.033Z,100615.75
2017-12-13T00:58:04.409Z,100615.41
2017-12-13T01:00:33.498Z,100601.50
2017-12-13T01:03:01.858Z,100594.55
2017-12-13T01:05:30.212Z,100597.27
2017-12-13T01:07:58.548Z,100604.69
2017-12-13T01:10:26.869Z,100602.18
2017-12-13T01:12:55.307Z,100603.03
2017-12-13T01:15:23.633Z,100602.45
2017-12-13T01:17:51.961Z,100600.03
2017-12-13T01:20:20.321Z,100601.53
2017-12-13T01:22:48.671Z,100599.63
2017-12-13T01:25:17.035Z,100598.66
2017-12-13T01:27:46.144Z,100597.94
2017-12-13T01:30:14.479Z,100596.94
2017-12-13T01:32:42.799Z,100600.72
2017-12-13T01:35:11.140Z,100592.98
2017-12-13T01:37:39.465Z,100592.79
2017-12-13T01:40:07.779Z,100597.97
2017-12-13T01:42:36.116Z,100598.80
2017-12-13T01:45:04.438Z,100592.98
2017-12-13T01:47:32.791Z,100595.99
2017-12-13T01:50:01.161Z,100602.02
2017-12-13T01:52:29.488Z,100594.42
2017-12-13T01:54:57.815Z,100598.67
2017-12-13T01:57:26.260Z,100606.02
2017-12-13T01:59:55.362Z,100600.09
2017-12-13T02:02:24.444Z,100602.69
2017-12-13T02:04:53.551Z,100598.87
2017-12-13T02:07:22.639Z,100602.61
2017-12-13T02:09:51.771Z,100598.19
2017-12-13T02:12:20.099Z,100597.70
2017-12-13T02:14:48.483Z,100589.18
2017-12-13T02:17:16.800Z,100593.95
2017-12-13T02:19:45.132Z,100585.45
2017-12-13T02:22:13.457Z,100590.03
2017-12-13T02:24:41.828Z,100584.45
2017-12-13T02:27:10.178Z,100585.04
2017-12-13T02:29:39.278Z,100588.20
2017-12-13T02:32:08.395Z,100585.80
2017-12-13T02:34:36.713Z,100585.47
2017-12-13T02:37:05.039Z,100581.05
2017-12-13T02:39:33.427Z,100585.55
2017-12-13T02:42:01.757Z,100576.88
2017-12-13T02:44:30.170Z,100583.78
2017-12-13T02:46:58.621Z,100589.47
2017-12-13T02:49:26.945Z,100583.70
2017-12-13T02:51:56.096Z,100576.37
2017-12-13T02:54:24.468Z,100572.68
2017-12-13T02:56:52.793Z,100574.84
2017-12-13T02:59:21.111Z,100582.95
2017-12-13T03:01:49.447Z,100579.61
2017-12-13T03:04:17.772Z,100576.78
2017-12-13T03:06:46.111Z,100573.34
2017-12-13T03:09:14.446Z,100570.98
2017-12-13T03:11:43.023Z,100564.38
2017-12-13T03:14:11.380Z,100563.45
2017-12-13T03:16:39.704Z,100564.72
2017-12-13T03:19:08.042Z,100557.11
2017-12-13T03:21:36.412Z,100557.13
2017-12-13T03:24:04.757Z,100554.61
2017-12-13T03:26:33.072Z,100547.05
2017-12-13T03:29:01.412Z,100551.72
2017-12-13T03:31:29.773Z,100541.77
2017-12-13T03:33:58.874Z,100545.05
2017-12-13T03:36:27.976Z,100543.30
2017-12-13T03:38:56.304Z,100538.59
2017-12-13T03:41:24.628Z,100533.91
2017-12-13T03:43:53.843Z,100534.58
2017-12-13T03:46:22.159Z,100532.74
2017-12-13T03:48:50.483Z,100531.88
2017-12-13T03:51:18.876Z,100526.06
2017-12-13T03:53:47.201Z,100525.27
2017-12-13T03:56:15.905Z,100541.59
2017-12-13T03:58:45.088Z,100534.42
2017-12-13T04:01:13.427Z,100536.74
2017-12-13T04:03:41.752Z,100540.09
2017-12-13T04:06:10.883Z,100544.77
2017-12-13T04:08:39.211Z,100539.67
2017-12-13T04:11:07.544Z,100526.22
2017-12-13T04:13:35.911Z,100535.39
2017-12-13T04:16:04.243Z,100539.97
2017-12-13T04:18:32.588Z,100533.52
2017-12-13T04:21:00.913Z,100530.59
2017-12-13T04:23:29.242Z,100518.55
2017-12-13T04:25:57.601Z,100514.55
2017-12-13T04:28:25.930Z,100516.17
2017-12-13T04:30:54.273Z,100518.78
2017-12-13T04:33:22.629Z,100514.61
2017-12-13T04:35:51.716Z,100515.69
2017-12-13T04:38:20.820Z,100513.20
2017-12-13T04:40:49.199Z,100506.61
2017-12-13T04:43:17.536Z,100511.04
2017-12-13T04:45:46.148Z,100499.02
2017-12-13T04:48:15.271Z,100499.49
2017-12-13T04:50:43.604Z,100497.11
2017-12-13T04:53:11.947Z,100488.52
2017-12-13T04:55:40.268Z,100488.70
2017-12-13T04:58:09.368Z,100479.03
2017-12-13T05:00:38.489Z,100482.83
2017-12-13T05:03:06.815Z,100485.75
2017-12-13T05:05:35.140Z,100478.53
2017-12-13T05:08:03.480Z,100476.59
2017-12-13T05:10:31.796Z,100478.27
2017-12-13T05:13:00.128Z,100473.02
2017-12-13T05:15:28.496Z,100468.75
2017-12-13T05:17:56.884Z,100469.55
2017-12-13T05:20:25.240Z,100467.13
2017-12-13T05:22:53.595Z,100476.08
2017-12-13T05:25:21.925Z,100471.84
2017-12-13T05:27:50.247Z,100471.75
2017-12-13T05:30:18.595Z,100470.86
2017-12-13T05:32:47.698Z,100472.98
2017-12-13T05:35:16.792Z,100476.48
2017-12-13T05:37:45.897Z,100476.84
2017-12-13T05:40:14.981Z,100473.40
2017-12-13T05:42:44.106Z,100476.36
2017-12-13T05:45:12.432Z,100475.02
2017-12-13T05:47:40.794Z,100476.08
2017-12-13T05:50:09.144Z,100484.47
2017-12-13T05:52:37.469Z,100476.00
2017-12-13T05:55:05.801Z,100473.27
2017-12-13T05:57:34.344Z,100479.59
2017-12-13T06:00:02.673Z,100460.59
2017-12-13T06:02:30.994Z,100461.27
2017-12-13T06:04:59.352Z,100451.31
2017-12-13T06:07:27.687Z,100454.84
2017-12-13T06:09:56.039Z,100445.42
2017-12-13T06:12:25.163Z,100451.53
2017-12-13T06:14:53.488Z,100444.69
2017-12-13T06:17:21.820Z,100441.86
2017-12-13T06:19:50.159Z,100441.44
2017-12-13T06:22:18.499Z,100444.71
2017-12-13T06:24:46.821Z,100438.64
2017-12-13T06:27:15.170Z,100439.31
2017-12-13T06:29:43.517Z,100432.22
2017-12-13T06:32:11.844Z,100435.73
2017-12-13T06:34:40.179Z,100434.11
2017-12-13T06:37:08.492Z,100433.44
2017-12-13T06:39:36.831Z,100432.80
2017-12-13T06:42:05.164Z,100440.34
2017-12-13T06:44:33.498Z,100437.41
2017-12-13T06:47:01.846Z,100434.20
2017-12-13T06:49:30.178Z,100436.36
2017-12-13T06:51:58.504Z,100431.93
2017-12-13T06:54:26.820Z,100427.77
2017-12-13T06:56:55.171Z,100431.70
2017-12-13T06:59:23.498Z,100420.88
2017-12-13T07:01:51.820Z,100419.56
2017-12-13T07:04:20.181Z,100418.26
2017-12-13T07:06:49.287Z,100419.42
2017-12-13T07:09:17.624Z,100417.84
2017-12-13T07:11:45.983Z,100408.38
2017-12-13T07:14:14.296Z,100410.50
2017-12-13T07:16:43.392Z,100409.00
2017-12-13T07:19:12.519Z,100403.82
2017-12-13T07:21:40.840Z,100406.70
2017-12-13T07:24:09.168Z,100392.87
2017-12-13T07:26:37.506Z,100394.43
2017-12-13T07:29:05.832Z,100392.30
2017-12-13T07:31:34.160Z,100384.73
2017-12-13T07:34:02.499Z,100383.11
2017-12-13T07:36:30.833Z,100376.02
2017-12-13T07:38:59.927Z,100372.27
2017-12-13T07:41:29.039Z,100370.75
2017-12-13T07:43:57.367Z,100368.33
2017-12-13T07:46:25.744Z,100361.61
2017-12-13T07:48:54.105Z,100361.85
2017-12-13T07:51:22.424Z,100358.81
2017-12-13T07:53:50.770Z,100353.75
2017-12-13T07:56:19.720Z,100354.14
2017-12-13T07:58:48.811Z,100353.83
2017-12-13T08:01:17.892Z,100360.86
2017-12-13T08:03:47.004Z,100343.55
2017-12-13T08:06:16.104Z,100346.09
2017-12-13T08:08:45.191Z,100344.45
2017-12-13T08:11:14.305Z,100331.64
2017-12-13T08:13:42.623Z,100325.72
2017-12-13T08:16:11.724Z,100331.92
2017-12-13T08:18:40.844Z,100324.31
2017-12-13T08:21:09.943Z,100318.63
2017-12-13T08:23:39.044Z,100313.75
2017-12-13T08:26:07.375Z,100305.75
2017-12-13T08:28:35.705Z,100292.72
2017-12-13T08:31:04.811Z,100294.06
2017-12-13T08:33:33.143Z,100283.48
2017-12-13T08:36:01.484Z,100278.88
2017-12-13T08:38:29.806Z,100277.30
2017-12-13T08:40:58.119Z,100277.98
2017-12-13T08:43:27.224Z,100278.06
2017-12-13T08:45:55.540Z,100267.30
2017-12-13T08:48:23.851Z,100265.13
2017-12-13T08:50:52.986Z,100232.85
2017-12-13T08:53:21.308Z,100254.14
2017-12-13T08:55:49.635Z,100254.28
2017-12-13T08:58:17.964Z,100245.86
2017-12-13T09:00:46.281Z,100255.05
2017-12-13T09:03:14.622Z,100247.67
2017-12-13T09:05:42.942Z,100254.95
2017-12-13T09:08:11.259Z,100256.59
2017-12-13T09:10:39.598Z,100263.77
2017-12-13T09:13:07.939Z,100266.67
2017-12-13T09:15:37.048Z,100265.81
2017-12-13T09:18:06.179Z,100263.86
2017-12-13T09:20:34.495Z,100258.23
2017-12-13T09:23:02.807Z,100243.02
2017-12-13T09:25:31.917Z,100219.80
2017-12-13T09:28:00.231Z,100240.73
2017-12-13T09:30:28.579Z,100236.47
2017-12-13T09:32:56.910Z,100233.59
2017-12-13T09:35:25.229Z,100224.05
2017-12-13T09:37:53.576Z,100228.38
2017-12-13T09:40:22.664Z,100206.52
2017-12-13T09:42:50.979Z,100208.59
2017-12-13T09:45:19.336Z,100212.39
2017-12-13T09:47:48.428Z,100184.83
2017-12-13T09:50:17.510Z,100184.67
2017-12-13T09:52:45.845Z,100172.44
2017-12-13T09:55:14.163Z,100167.30
2017-12-13T09:57:43.260Z,100165.27
2017-12-13T10:00:11.596Z,100161.05
2017-12-13T10:02:39.911Z,100154.20
2017-12-13T10:05:08.228Z,100144.31
2017-12-13T10:07:36.588Z,100140.42
2017-12-13T10:10:05.668Z,100137.77
2017-12-13T10:12:33.980Z,100138.53
2017-12-13T10:15:02.393Z,100123.80
2017-12-13T10:17:31.746Z,100118.87
2017-12-13T10:20:00.085Z,100119.12
2017-12-13T10:22:28.438Z,100123.84
2017-12-13T10:24:56.750Z,100109.20
2017-12-13T10:27:25.293Z,100099.51
2017-12-13T10:29:53.653Z,100083.47
2017-12-13T10:32:21.977Z,100077.30
2017-12-13T10:34:50.295Z,100070.45
2017-12-13T10:37:19.415Z,100060.05
2017-12-13T10:39:47.731Z,100064.20
2017-12-13T10:42:16.044Z,100061.82
2017-12-13T10:44:45.923Z,100051.08
2017-12-13T10:47:14.261Z,100047.68
2017-12-13T10:49:42.576Z,100049.43
2017-12-13T10:52:10.931Z,100035.26
2017-12-13T10:54:39.290Z,100035.59
2017-12-13T10:57:08.340Z,100028.43
2017-12-13T10:59:36.683Z,100027.49
2017-12-13T11:02:05.000Z,100018.72
2017-12-13T11:04:33.323Z,100019.77
2017-12-13T11:07:01.671Z,100018.50
2017-12-13T11:09:30.761Z,100018.25
2017-12-13T11:11:59.845Z,100006.65
2017-12-13T11:14:28.177Z,99993.14
2017-12-13T11:16:56.484Z,99980.73
2017-12-13T11:19:24.792Z,99962.75
2017-12-13T11:21:53.888Z,99950.59
2017-12-13T11:24:22.963Z,99947.49
2017-12-13T11:26:51.285Z,99951.30
2017-12-13T11:29:19.615Z,99948.20
2017-12-13T11:31:47.951Z,99945.50
2017-12-13T11:34:16.259Z,99940.44
2017-12-13T11:36:44.607Z,99931.95
2017-12-13T11:39:12.938Z,99932.55
2017-12-13T11:41:42.021Z,99916.66
2017-12-13T11:44:10.370Z,99907.35
2017-12-13T11:46:38.727Z,99892.58
2017-12-13T11:49:07.035Z,99884.78
2017-12-13T11:51:35.381Z,99876.08
2017-12-13T11:54:05.638Z,99869.17
2017-12-13T11:56:33.955Z,99863.72
2017-12-13T11:59:02.289Z,99860.03
2017-12-13T12:01:30.631Z,99855.72
2017-12-13T12:03:58.950Z,99845.12
2017-12-13T12:06:27.385Z,99834.34
2017-12-13T12:08:55.695Z,99840.62
2017-12-13T12:11:24.780Z,99825.06
2017-12-13T12:13:53.115Z,99818.36
2017-12-13T12:16:22.206Z,99805.81
2017-12-13T12:18:51.293Z,99803.45
2017-12-13T12:21:19.640Z,99792.02
2017-12-13T12:23:47.952Z,99789.05
2017-12-13T12:26:17.042Z,99775.59
2017-12-13T12:28:45.395Z,99778.02
2017-12-13T12:31:13.703Z,99776.44
2017-12-13T12:33:42.008Z,99757.98
2017-12-13T12:36:10.352Z,99751.49
2017-12-13T12:38:38.681Z,99739.53
2017-12-13T12:41:06.998Z,99727.84
2017-12-13T12:43:35.357Z,99720.82
2017-12-13T12:46:03.689Z,99724.51
2017-12-13T12:48:32.019Z,99715.53
2017-12-13T12:51:01.650Z,99706.41
2017-12-13T12:53:30.002Z,99702.44
2017-12-13T12:55:58.344Z,99689.61
2017-12-13T12:58:26.662Z,99675.81
2017-12-13T13:00:56.610Z,99668.23
2017-12-13T13:03:25.732Z,99657.23
2017-12-13T13:05:54.045Z,99632.63
2017-12-13T13:08:22.388Z,99621.88
2017-12-13T13:10:50.757Z,99607.56
2017-12-13T13:13:19.079Z,99614.70
2017-12-13T13:15:47.409Z,99604.80
2017-12-13T13:18:15.768Z,99602.35
2017-12-13T13:20:44.852Z,99598.67
2017-12-13T13:23:13.168Z,99590.73
2017-12-13T13:25:41.509Z,99574.82
2017-12-13T13:28:09.863Z,99571.47
2017-12-13T13:30:38.172Z,99561.40
2017-12-13T13:33:06.525Z,99558.52
2017-12-13T13:35:34.841Z,99557.05
2017-12-13T13:38:03.938Z,99553.34
2017-12-13T13:40:32.283Z,99550.92
2017-12-13T13:43:00.593Z,99545.41
2017-12-13T13:45:29.688Z,99545.96
2017-12-13T13:47:58.034Z,99534.13
2017-12-13T13:50:26.359Z,99528.87
2017-12-13T13:52:54.703Z,99518.08
2017-12-13T13:55:23.021Z,99510.18
2017-12-13T13:57:51.328Z,99505.38
2017-12-13T14:00:19.657Z,99501.09
2017-12-13T14:02:48.751Z,99493.23
2017-12-13T14:05:17.844Z,99482.57
2017-12-13T14:07:47.751Z,99476.70
2017-12-13T14:10:16.864Z,99475.64
2017-12-13T14:12:45.196Z,99469.80
2017-12-13T14:15:13.521Z,99464.84
2017-12-13T14:17:41.829Z,99465.05
2017-12-13T14:20:10.200Z,99464.88
2017-12-13T14:22:38.528Z,99452.25
2017-12-13T14:25:06.848Z,99448.95
2017-12-13T14:27:35.189Z,99448.58
2017-12-13T14:30:04.268Z,99438.12
2017-12-13T14:32:32.586Z,99435.15
2017-12-13T14:35:00.941Z,99423.88
2017-12-13T14:37:30.016Z,99410.59
2017-12-13T14:39:58.340Z,99403.95
2017-12-13T14:42:26.704Z,99398.25
2017-12-13T14:44:55.819Z,99391.63
2017-12-13T14:47:24.143Z,99394.67
2017-12-13T14:49:52.481Z,99389.30
2017-12-13T14:52:20.800Z,99383.87
2017-12-13T14:54:49.138Z,99380.46
2017-12-13T14:57:17.475Z,99374.52
2017-12-13T14:59:46.568Z,99360.31
2017-12-13T15:02:14.894Z,99365.48
2017-12-13T15:04:43.247Z,99359.95
2017-12-13T15:07:11.578Z,99348.62
2017-12-13T15:09:39.896Z,99337.27
2017-12-13T15:12:08.253Z,99334.02
2017-12-13T15:14:37.350Z,99324.08
2017-12-13T15:17:06.472Z,99320.30
2017-12-13T15:19:34.868Z,99309.71
2017-12-13T15:22:03.271Z,99305.72
2017-12-13T15:24:31.774Z,99295.75
2017-12-13T15:27:00.143Z,99287.98
2017-12-13T15:29:28.481Z,99279.77
2017-12-13T15:31:56.824Z,99268.26
2017-12-13T15:34:25.971Z,99273.02
2017-12-13T15:36:54.369Z,99259.39
2017-12-13T15:39:22.711Z,99257.11
2017-12-13T15:41:51.136Z,99256.91
2017-12-13T15:44:19.525Z,99248.56
2017-12-13T15:46:47.897Z,99247.55
2017-12-13T15:49:16.262Z,99244.66
2017-12-13T15:51:44.750Z,99233.84
2017-12-13T15:54:13.083Z,99214.84
2017-12-13T15:56:41.446Z,99216.59
2017-12-13T15:59:09.782Z,99229.81
2017-12-13T16:01:38.145Z,99214.27
2017-12-13T16:04:06.511Z,99206.38
2017-12-13T16:06:34.852Z,99203.05
2017-12-13T16:09:03.241Z,99195.41
2017-12-13T16:11:31.591Z,99192.06
2017-12-13T16:14:00.004Z,99193.69
2017-12-13T16:16:28.377Z,99188.53
2017-12-13T16:18:56.704Z,99178.00
2017-12-13T16:21:25.036Z,99179.75
2017-12-13T16:23:53.456Z,99171.70
2017-12-13T16:26:21.808Z,99168.94
2017-12-13T16:28:50.188Z,99153.52
2017-12-13T16:31:18.597Z,99158.93
2017-12-13T16:33:46.976Z,99149.17
2017-12-13T16:36:15.338Z,99144.83
2017-12-13T16:38:43.701Z,99143.77
2017-12-13T16:41:12.188Z,99140.48
2017-12-13T16:43:40.561Z,99128.08
2017-12-13T16:46:08.932Z,99125.44
2017-12-13T16:48:37.307Z,99112.62
2017-12-13T16:51:05.680Z,99113.64
2017-12-13T16:53:34.820Z,99105.38
2017-12-13T16:56:03.151Z,99100.95
2017-12-13T16:58:31.655Z,99087.01
2017-12-13T17:01:00.024Z,99089.42
2017-12-13T17:03:28.365Z,99088.64
2017-12-13T17:05:56.791Z,99083.03
2017-12-13T17:08:25.152Z,99079.98
2017-12-13T17:10:53.488Z,99069.66
2017-12-13T17:13:21.815Z,99070.78
2017-12-13T17:15:50.191Z,99062.75
2017-12-13T17:18:18.521Z,99057.45
2017-12-13T17:20:46.869Z,99061.00
2017-12-13T17:23:15.223Z,99056.30
2017-12-13T17:25:43.588Z,99047.27
2017-12-13T17:28:12.705Z,99043.25
2017-12-13T17:30:41.040Z,99037.64
2017-12-13T17:33:10.264Z,99032.27
2017-12-13T17:35:39.432Z,99029.14
2017-12-13T17:38:07.751Z,99016.63
2017-12-13T17:40:36.117Z,99011.09
2017-12-13T17:43:05.216Z,99010.71
2017-12-13T17:45:33.548Z,99000.13
2017-12-13T17:48:01.876Z,98992.53
2017-12-13T17:50:30.248Z,98991.55
2017-12-13T17:52:59.359Z,98993.55
2017-12-13T17:55:27.724Z,98988.70
2017-12-13T17:57:56.840Z,98978.89
2017-12-13T18:00:26.912Z,98967.66
2017-12-13T18:02:55.240Z,98959.67
2017-12-13T18:05:23.736Z,98960.44
2017-12-13T18:07:52.071Z,98950.45
2017-12-13T18:10:21.171Z,98955.09
2017-12-13T18:12:50.269Z,98940.45
2017-12-13T18:15:18.620Z,98938.16
2017-12-13T18:17:47.736Z,98937.27
2017-12-13T18:20:16.816Z,98919.72
2017-12-13T18:22:45.156Z,98911.50
2017-12-13T18:25:13.556Z,98907.31
2017-12-13T18:27:41.899Z,98897.45
2017-12-13T18:30:10.313Z,98891.72
2017-12-13T18:32:39.454Z,98889.92
2017-12-13T18:35:07.807Z,98883.36
2017-12-13T18:37:36.133Z,98878.53
2017-12-13T18:40:05.861Z,98879.80
2017-12-13T18:42:34.288Z,98871.08
2017-12-13T18:45:03.417Z,98863.97
2017-12-13T18:47:31.799Z,98857.02
2017-12-13T18:50:00.165Z,98848.20
2017-12-13T18:52:28.516Z,98838.29
2017-12-13T18:54:57.634Z,98832.86
2017-12-13T18:57:26.013Z,98836.72
2017-12-13T18:59:54.406Z,98821.67
2017-12-13T19:02:22.856Z,98821.51
2017-12-13T19:04:52.026Z,98805.01
2017-12-13T19:07:20.377Z,98804.64
2017-12-13T19:09:49.097Z,98802.55
2017-12-13T19:12:18.240Z,98810.47
2017-12-13T19:14:46.572Z,98803.55
2017-12-13T19:17:14.988Z,98790.42
2017-12-13T19:19:43.343Z,98789.77
2017-12-13T19:22:12.490Z,98790.30
2017-12-13T19:24:40.827Z,98780.03
2017-12-13T19:27:09.965Z,98782.25
2017-12-13T19:29:38.337Z,98785.68
2017-12-13T19:32:06.662Z,98782.16
2017-12-13T19:34:35.037Z,98777.59
2017-12-13T19:37:04.119Z,98766.52
2017-12-13T19:39:32.480Z,98768.49
2017-12-13T19:42:00.846Z,98761.38
2017-12-13T19:44:29.190Z,98763.19
2017-12-13T19:46:57.524Z,98752.86
2017-12-13T19:49:25.915Z,98729.06
2017-12-13T19:51:54.241Z,98751.27
2017-12-13T19:54:22.585Z,98751.98
2017-12-13T19:56:51.698Z,98745.50
2017-12-13T19:59:20.045Z,98741.00
2017-12-13T20:01:48.396Z,98735.08
2017-12-13T20:04:16.810Z,98729.11
2017-12-13T20:06:45.142Z,98734.16
2017-12-13T20:09:13.467Z,98719.87
2017-12-13T20:11:41.812Z,98721.27
2017-12-13T20:14:10.146Z,98716.42
2017-12-13T20:16:38.485Z,98706.01
2017-12-13T20:19:06.833Z,98703.88
2017-12-13T20:21:35.188Z,98697.75
2017-12-13T20:24:03.622Z,98696.41
2017-12-13T20:26:31.935Z,98681.36
2017-12-13T20:29:01.019Z,98672.92
2017-12-13T20:31:30.196Z,98667.61
2017-12-13T20:33:58.536Z,98661.16
2017-12-13T20:36:26.884Z,98641.77
2017-12-13T20:38:55.244Z,98638.60
2017-12-13T20:41:23.584Z,98618.64
2017-12-13T20:43:51.894Z,98615.98
2017-12-13T20:46:20.248Z,98608.25
2017-12-13T20:48:48.571Z,98600.00
2017-12-13T20:51:17.690Z,98579.61
2017-12-13T20:53:46.039Z,98568.30
2017-12-13T20:56:15.147Z,98571.28
2017-12-13T20:58:43.624Z,98551.84
2017-12-13T21:01:11.980Z,98550.75
2017-12-13T21:03:40.323Z,98562.99
2017-12-13T21:06:08.657Z,98547.29
2017-12-13T21:08:37.772Z,98555.05
2017-12-13T21:11:06.115Z,98547.02
2017-12-13T21:13:35.228Z,98524.77
2017-12-13T21:16:04.381Z,98501.30
2017-12-13T21:18:32.725Z,98498.14
2017-12-13T21:21:01.140Z,98502.08
2017-12-13T21:23:29.479Z,98509.98
2017-12-13T21:25:57.793Z,98486.53
2017-12-13T21:28:26.132Z,98473.92
2017-12-13T21:30:54.465Z,98465.53
2017-12-13T21:33:22.779Z,98463.88
2017-12-13T21:35:51.143Z,98458.69
2017-12-13T21:38:20.243Z,98456.72
2017-12-13T21:40:49.355Z,98446.67
2017-12-13T21:43:17.688Z,98443.94
2017-12-13T21:45:46.041Z,98435.97
2017-12-13T21:48:14.371Z,98426.17
2017-12-13T21:50:43.480Z,98418.13
2017-12-13T21:53:11.815Z,98406.80
2017-12-13T21:55:40.152Z,98403.31
2017-12-13T21:58:08.467Z,98384.16
2017-12-13T22:00:36.792Z,98387.82
2017-12-13T22:03:05.164Z,98394.53
2017-12-13T22:05:33.483Z,98390.78
2017-12-13T22:08:01.797Z,98389.52
2017-12-13T22:10:30.135Z,98365.98
2017-12-13T22:12:58.448Z,98360.58
2017-12-13T22:15:26.781Z,98353.64
2017-12-13T22:17:55.220Z,98358.51
2017-12-13T22:20:24.311Z,98353.73
2017-12-13T22:22:53.428Z,98345.81
2017-12-13T22:25:21.802Z,98338.87
2017-12-13T22:27:50.118Z,98321.44
2017-12-13T22:30:18.466Z,98320.85
2017-12-13T22:32:46.805Z,98317.40
2017-12-13T22:35:15.124Z,98309.09
2017-12-13T22:37:43.440Z,98293.70
2017-12-13T22:40:11.786Z,98284.66
2017-12-13T22:42:40.088Z,98273.92
2017-12-13T22:45:08.421Z,98278.79
2017-12-13T22:47:37.532Z,98258.63
2017-12-13T22:50:05.860Z,98247.44
2017-12-13T22:52:34.176Z,98238.34
2017-12-13T22:55:02.528Z,98230.74
2017-12-13T22:57:30.852Z,98224.00
2017-12-13T22:59:59.170Z,98219.34
2017-12-13T23:02:27.516Z,98212.30
2017-12-13T23:04:55.858Z,98186.93
2017-12-13T23:07:24.976Z,98187.56
2017-12-13T23:09:53.335Z,98177.06
2017-12-13T23:12:21.653Z,98160.22
2017-12-13T23:14:50.001Z,98148.81
2017-12-13T23:17:18.338Z,98138.04
2017-12-13T23:19:46.682Z,98125.95
2017-12-13T23:22:15.014Z,98119.22
2017-12-13T23:24:43.370Z,98103.20
2017-12-13T23:27:11.709Z,98089.38
2017-12-13T23:29:40.042Z,98076.15
2017-12-13T23:32:09.160Z,98068.16
2017-12-13T23:34:37.500Z,98056.34
2017-12-13T23:37:05.819Z,98044.79
2017-12-13T23:39:34.188Z,98038.08
2017-12-13T23:42:02.535Z,98034.08
2017-12-13T23:44:30.879Z,98044.14
2017-12-13T23:46:59.268Z,98041.11
2017-12-13T23:49:27.700Z,98046.51
2017-12-13T23:51:56.815Z,98030.00
2017-12-13T23:54:25.273Z,98024.49
2017-12-13T23:56:54.360Z,98019.50
2017-12-13T23:59:23.506Z,98011.83
